sensor_id;sensor_type;location;lat;lon;timestamp;P1;durP1;ratioP1;P2;durP2;ratioP2
49103;SDS011;34915;52.926;11.116;2022-10-17T00:01:18;2.77;;;2.37;;
49103;SDS011;34915;52.926;11.116;2022-10-17T00:03:44;4.07;;;2.70;;
49103;SDS011;34915;52.926;11.116;2022-10-17T00:06:11;4.80;;;2.90;;
49103;SDS011;34915;52.926;11.116;2022-10-17T00:08:38;2.50;;;2.30;;
49103;SDS011;34915;52.926;11.116;2022-10-17T00:11:06;2.40;;;2.20;;
49103;SDS011;34915;52.926;11.116;2022-10-17T00:13:37;2.70;;;2.03;;
49103;SDS011;34915;52.926;11.116;2022-10-17T00:16:05;3.50;;;2.10;;
49103;SDS011;34915;52.926;11.116;2022-10-17T00:18:34;5.60;;;2.20;;
49103;SDS011;34915;52.926;11.116;2022-10-17T00:21:03;2.67;;;2.40;;
49103;SDS011;34915;52.926;11.116;2022-10-17T00:23:32;3.80;;;2.37;;
49103;SDS011;34915;52.926;11.116;2022-10-17T00:25:58;2.43;;;2.20;;
49103;SDS011;34915;52.926;11.116;2022-10-17T00:28:25;2.87;;;2.27;;
49103;SDS011;34915;52.926;11.116;2022-10-17T00:31:01;2.47;;;2.10;;
49103;SDS011;34915;52.926;11.116;2022-10-17T00:33:29;2.50;;;1.63;;
49103;SDS011;34915;52.926;11.116;2022-10-17T00:38:54;4.03;;;2.10;;
49103;SDS011;34915;52.926;11.116;2022-10-17T00:41:29;2.60;;;2.40;;
49103;SDS011;34915;52.926;11.116;2022-10-17T00:44:03;1.70;;;1.60;;
49103;SDS011;34915;52.926;11.116;2022-10-17T00:46:35;2.60;;;1.97;;
49103;SDS011;34915;52.926;11.116;2022-10-17T00:49:04;2.27;;;1.60;;
49103;SDS011;34915;52.926;11.116;2022-10-17T00:51:33;2.00;;;1.57;;
49103;SDS011;34915;52.926;11.116;2022-10-17T00:54:05;1.80;;;1.70;;
49103;SDS011;34915;52.926;11.116;2022-10-17T00:56:35;1.30;;;1.20;;
49103;SDS011;34915;52.926;11.116;2022-10-17T00:59:04;1.27;;;1.20;;
49103;SDS011;34915;52.926;11.116;2022-10-17T01:01:30;1.50;;;1.40;;
49103;SDS011;34915;52.926;11.116;2022-10-17T01:03:55;2.10;;;1.20;;
49103;SDS011;34915;52.926;11.116;2022-10-17T01:06:21;4.67;;;1.27;;
49103;SDS011;34915;52.926;11.116;2022-10-17T01:08:47;1.63;;;1.40;;
49103;SDS011;34915;52.926;11.116;2022-10-17T01:11:29;1.20;;;1.10;;
49103;SDS011;34915;52.926;11.116;2022-10-17T01:14:05;1.30;;;1.20;;
49103;SDS011;34915;52.926;11.116;2022-10-17T01:16:51;3.33;;;1.33;;
49103;SDS011;34915;52.926;11.116;2022-10-17T01:19:38;1.43;;;1.03;;
49103;SDS011;34915;52.926;11.116;2022-10-17T01:33:17;0.90;;;0.90;;
49103;SDS011;34915;52.926;11.116;2022-10-17T01:36:16;1.40;;;1.30;;
49103;SDS011;34915;52.926;11.116;2022-10-17T01:38:56;1.10;;;1.00;;
49103;SDS011;34915;52.926;11.116;2022-10-17T01:44:18;0.97;;;0.90;;
49103;SDS011;34915;52.926;11.116;2022-10-17T01:47:07;2.47;;;1.33;;
49103;SDS011;34915;52.926;11.116;2022-10-17T01:49:38;1.00;;;1.00;;
49103;SDS011;34915;52.926;11.116;2022-10-17T01:52:11;1.20;;;1.10;;
49103;SDS011;34915;52.926;11.116;2022-10-17T01:54:48;1.10;;;1.03;;
49103;SDS011;34915;52.926;11.116;2022-10-17T01:57:21;1.90;;;1.03;;
49103;SDS011;34915;52.926;11.116;2022-10-17T01:59:54;2.63;;;1.67;;
49103;SDS011;34915;52.926;11.116;2022-10-17T02:02:22;0.80;;;0.80;;
49103;SDS011;34915;52.926;11.116;2022-10-17T02:04:50;1.93;;;1.30;;
49103;SDS011;34915;52.926;11.116;2022-10-17T02:07:18;1.87;;;1.57;;
49103;SDS011;34915;52.926;11.116;2022-10-17T02:09:43;1.20;;;1.03;;
49103;SDS011;34915;52.926;11.116;2022-10-17T02:20:27;1.10;;;1.00;;
49103;SDS011;34915;52.926;11.116;2022-10-17T02:23:09;0.77;;;0.77;;
49103;SDS011;34915;52.926;11.116;2022-10-17T02:31:05;1.27;;;1.17;;
49103;SDS011;34915;52.926;11.116;2022-10-17T02:33:45;1.20;;;1.03;;
49103;SDS011;34915;52.926;11.116;2022-10-17T02:36:17;0.70;;;0.70;;
49103;SDS011;34915;52.926;11.116;2022-10-17T02:38:46;1.07;;;1.03;;
49103;SDS011;34915;52.926;11.116;2022-10-17T02:41:15;1.37;;;1.03;;
49103;SDS011;34915;52.926;11.116;2022-10-17T02:43:44;1.10;;;1.00;;
49103;SDS011;34915;52.926;11.116;2022-10-17T02:46:15;1.60;;;1.30;;
49103;SDS011;34915;52.926;11.116;2022-10-17T02:54:27;0.90;;;0.90;;
49103;SDS011;34915;52.926;11.116;2022-10-17T02:57:48;1.07;;;0.97;;
49103;SDS011;34915;52.926;11.116;2022-10-17T03:00:12;1.30;;;1.07;;
49103;SDS011;34915;52.926;11.116;2022-10-17T03:02:41;1.30;;;1.20;;
49103;SDS011;34915;52.926;11.116;2022-10-17T03:05:11;0.83;;;0.83;;
49103;SDS011;34915;52.926;11.116;2022-10-17T03:07:40;1.57;;;1.30;;
49103;SDS011;34915;52.926;11.116;2022-10-17T03:10:09;1.70;;;1.60;;
49103;SDS011;34915;52.926;11.116;2022-10-17T03:12:35;1.00;;;1.00;;
49103;SDS011;34915;52.926;11.116;2022-10-17T03:15:01;1.17;;;1.07;;
49103;SDS011;34915;52.926;11.116;2022-10-17T03:17:29;1.50;;;1.07;;
49103;SDS011;34915;52.926;11.116;2022-10-17T03:19:55;1.17;;;1.07;;
49103;SDS011;34915;52.926;11.116;2022-10-17T03:22:21;1.53;;;1.20;;
49103;SDS011;34915;52.926;11.116;2022-10-17T03:24:46;1.10;;;1.00;;
49103;SDS011;34915;52.926;11.116;2022-10-17T03:27:15;2.13;;;1.40;;
49103;SDS011;34915;52.926;11.116;2022-10-17T03:29:43;1.17;;;1.10;;
49103;SDS011;34915;52.926;11.116;2022-10-17T03:32:09;1.20;;;1.10;;
49103;SDS011;34915;52.926;11.116;2022-10-17T03:34:38;1.00;;;1.00;;
49103;SDS011;34915;52.926;11.116;2022-10-17T03:37:03;1.07;;;1.07;;
49103;SDS011;34915;52.926;11.116;2022-10-17T03:39:29;1.70;;;0.93;;
49103;SDS011;34915;52.926;11.116;2022-10-17T03:41:55;3.70;;;1.70;;
49103;SDS011;34915;52.926;11.116;2022-10-17T03:44:20;1.27;;;1.17;;
49103;SDS011;34915;52.926;11.116;2022-10-17T03:46:46;1.63;;;1.00;;
49103;SDS011;34915;52.926;11.116;2022-10-17T03:49:12;1.07;;;0.97;;
49103;SDS011;34915;52.926;11.116;2022-10-17T03:51:37;1.77;;;0.97;;
49103;SDS011;34915;52.926;11.116;2022-10-17T03:54:03;3.50;;;0.90;;
49103;SDS011;34915;52.926;11.116;2022-10-17T03:56:28;1.00;;;0.90;;
49103;SDS011;34915;52.926;11.116;2022-10-17T03:58:54;4.13;;;1.03;;
49103;SDS011;34915;52.926;11.116;2022-10-17T04:01:20;1.20;;;1.10;;
49103;SDS011;34915;52.926;11.116;2022-10-17T04:03:50;1.13;;;0.90;;
49103;SDS011;34915;52.926;11.116;2022-10-17T04:06:17;2.23;;;0.97;;
49103;SDS011;34915;52.926;11.116;2022-10-17T04:08:44;1.30;;;0.97;;
49103;SDS011;34915;52.926;11.116;2022-10-17T04:11:10;1.40;;;1.30;;
49103;SDS011;34915;52.926;11.116;2022-10-17T04:13:39;1.30;;;1.20;;
49103;SDS011;34915;52.926;11.116;2022-10-17T04:16:06;1.43;;;1.33;;
49103;SDS011;34915;52.926;11.116;2022-10-17T04:18:34;2.17;;;1.23;;
49103;SDS011;34915;52.926;11.116;2022-10-17T04:21:03;1.50;;;1.10;;
49103;SDS011;34915;52.926;11.116;2022-10-17T04:23:30;1.30;;;1.20;;
49103;SDS011;34915;52.926;11.116;2022-10-17T04:25:56;1.50;;;1.40;;
49103;SDS011;34915;52.926;11.116;2022-10-17T04:28:23;1.40;;;1.30;;
49103;SDS011;34915;52.926;11.116;2022-10-17T04:30:59;2.13;;;1.03;;
49103;SDS011;34915;52.926;11.116;2022-10-17T04:33:36;1.20;;;1.10;;
49103;SDS011;34915;52.926;11.116;2022-10-17T04:36:03;1.47;;;1.37;;
49103;SDS011;34915;52.926;11.116;2022-10-17T04:38:35;1.20;;;1.20;;
49103;SDS011;34915;52.926;11.116;2022-10-17T04:41:02;1.50;;;1.40;;
49103;SDS011;34915;52.926;11.116;2022-10-17T04:43:34;1.27;;;1.17;;
49103;SDS011;34915;52.926;11.116;2022-10-17T04:46:02;1.37;;;1.10;;
49103;SDS011;34915;52.926;11.116;2022-10-17T04:48:31;1.73;;;1.63;;
49103;SDS011;34915;52.926;11.116;2022-10-17T04:51:00;2.03;;;1.37;;
49103;SDS011;34915;52.926;11.116;2022-10-17T04:53:30;1.70;;;1.60;;
49103;SDS011;34915;52.926;11.116;2022-10-17T04:55:57;1.80;;;1.70;;
49103;SDS011;34915;52.926;11.116;2022-10-17T04:58:23;2.30;;;2.10;;
49103;SDS011;34915;52.926;11.116;2022-10-17T05:00:51;1.60;;;1.50;;
49103;SDS011;34915;52.926;11.116;2022-10-17T05:03:17;1.77;;;1.67;;
49103;SDS011;34915;52.926;11.116;2022-10-17T05:05:45;2.30;;;1.17;;
49103;SDS011;34915;52.926;11.116;2022-10-17T05:08:11;2.20;;;1.63;;
49103;SDS011;34915;52.926;11.116;2022-10-17T05:10:42;1.40;;;1.30;;
49103;SDS011;34915;52.926;11.116;2022-10-17T05:13:09;1.40;;;1.30;;
49103;SDS011;34915;52.926;11.116;2022-10-17T05:15:35;1.40;;;1.30;;
49103;SDS011;34915;52.926;11.116;2022-10-17T05:18:01;1.17;;;1.10;;
49103;SDS011;34915;52.926;11.116;2022-10-17T05:20:28;1.30;;;1.20;;
49103;SDS011;34915;52.926;11.116;2022-10-17T05:22:54;1.60;;;1.50;;
49103;SDS011;34915;52.926;11.116;2022-10-17T05:25:22;2.17;;;1.40;;
49103;SDS011;34915;52.926;11.116;2022-10-17T05:27:48;2.00;;;1.47;;
49103;SDS011;34915;52.926;11.116;2022-10-17T05:30:14;1.90;;;1.57;;
49103;SDS011;34915;52.926;11.116;2022-10-17T05:32:40;1.20;;;1.10;;
49103;SDS011;34915;52.926;11.116;2022-10-17T05:35:08;1.40;;;1.30;;
49103;SDS011;34915;52.926;11.116;2022-10-17T05:37:34;4.07;;;1.20;;
49103;SDS011;34915;52.926;11.116;2022-10-17T05:40:00;1.47;;;1.37;;
49103;SDS011;34915;52.926;11.116;2022-10-17T05:42:28;2.83;;;1.60;;
49103;SDS011;34915;52.926;11.116;2022-10-17T05:44:57;1.80;;;1.70;;
49103;SDS011;34915;52.926;11.116;2022-10-17T05:47:25;2.23;;;2.03;;
49103;SDS011;34915;52.926;11.116;2022-10-17T05:49:54;2.27;;;1.47;;
49103;SDS011;34915;52.926;11.116;2022-10-17T05:52:19;1.60;;;1.30;;
49103;SDS011;34915;52.926;11.116;2022-10-17T05:54:45;1.23;;;1.13;;
49103;SDS011;34915;52.926;11.116;2022-10-17T05:57:12;3.63;;;2.27;;
49103;SDS011;34915;52.926;11.116;2022-10-17T05:59:37;1.50;;;1.40;;
49103;SDS011;34915;52.926;11.116;2022-10-17T06:02:03;1.63;;;1.50;;
49103;SDS011;34915;52.926;11.116;2022-10-17T06:04:31;1.47;;;1.23;;
49103;SDS011;34915;52.926;11.116;2022-10-17T06:07:00;2.07;;;1.80;;
49103;SDS011;34915;52.926;11.116;2022-10-17T06:09:29;1.30;;;1.20;;
49103;SDS011;34915;52.926;11.116;2022-10-17T06:11:57;1.57;;;1.47;;
49103;SDS011;34915;52.926;11.116;2022-10-17T06:14:22;1.50;;;1.40;;
49103;SDS011;34915;52.926;11.116;2022-10-17T06:16:51;1.47;;;1.30;;
49103;SDS011;34915;52.926;11.116;2022-10-17T06:19:19;2.13;;;1.53;;
49103;SDS011;34915;52.926;11.116;2022-10-17T06:21:48;0.93;;;0.93;;
49103;SDS011;34915;52.926;11.116;2022-10-17T06:24:17;1.53;;;1.43;;
49103;SDS011;34915;52.926;11.116;2022-10-17T06:26:42;1.47;;;1.27;;
49103;SDS011;34915;52.926;11.116;2022-10-17T06:29:08;1.97;;;1.47;;
49103;SDS011;34915;52.926;11.116;2022-10-17T06:31:33;2.53;;;1.20;;
49103;SDS011;34915;52.926;11.116;2022-10-17T06:33:59;2.33;;;2.00;;
49103;SDS011;34915;52.926;11.116;2022-10-17T06:36:25;1.83;;;1.50;;
49103;SDS011;34915;52.926;11.116;2022-10-17T06:38:53;1.80;;;1.70;;
49103;SDS011;34915;52.926;11.116;2022-10-17T06:41:22;2.23;;;1.57;;
49103;SDS011;34915;52.926;11.116;2022-10-17T06:43:50;1.40;;;1.30;;
49103;SDS011;34915;52.926;11.116;2022-10-17T06:46:16;1.60;;;1.50;;
49103;SDS011;34915;52.926;11.116;2022-10-17T06:48:43;1.63;;;1.40;;
49103;SDS011;34915;52.926;11.116;2022-10-17T06:51:12;2.30;;;1.60;;
49103;SDS011;34915;52.926;11.116;2022-10-17T06:53:38;1.57;;;1.37;;
49103;SDS011;34915;52.926;11.116;2022-10-17T06:56:05;1.70;;;1.60;;
49103;SDS011;34915;52.926;11.116;2022-10-17T06:58:33;1.90;;;1.70;;
49103;SDS011;34915;52.926;11.116;2022-10-17T07:01:04;3.03;;;1.37;;
49103;SDS011;34915;52.926;11.116;2022-10-17T07:03:31;1.67;;;1.57;;
49103;SDS011;34915;52.926;11.116;2022-10-17T07:06:00;1.77;;;1.50;;
49103;SDS011;34915;52.926;11.116;2022-10-17T07:08:26;1.53;;;1.40;;
49103;SDS011;34915;52.926;11.116;2022-10-17T07:10:52;1.83;;;1.73;;
49103;SDS011;34915;52.926;11.116;2022-10-17T07:13:21;1.67;;;1.57;;
49103;SDS011;34915;52.926;11.116;2022-10-17T07:15:47;1.67;;;1.47;;
49103;SDS011;34915;52.926;11.116;2022-10-17T07:18:16;2.83;;;1.97;;
49103;SDS011;34915;52.926;11.116;2022-10-17T07:20:42;3.50;;;2.30;;
49103;SDS011;34915;52.926;11.116;2022-10-17T07:23:07;1.90;;;1.60;;
49103;SDS011;34915;52.926;11.116;2022-10-17T07:25:33;1.87;;;1.77;;
49103;SDS011;34915;52.926;11.116;2022-10-17T07:27:59;2.17;;;1.73;;
49103;SDS011;34915;52.926;11.116;2022-10-17T07:30:26;1.90;;;1.70;;
49103;SDS011;34915;52.926;11.116;2022-10-17T07:32:54;2.97;;;1.93;;
49103;SDS011;34915;52.926;11.116;2022-10-17T07:35:20;1.80;;;1.70;;
49103;SDS011;34915;52.926;11.116;2022-10-17T07:37:46;3.47;;;2.47;;
49103;SDS011;34915;52.926;11.116;2022-10-17T07:40:14;2.87;;;2.30;;
49103;SDS011;34915;52.926;11.116;2022-10-17T07:42:40;2.30;;;1.73;;
49103;SDS011;34915;52.926;11.116;2022-10-17T07:45:09;3.10;;;2.00;;
49103;SDS011;34915;52.926;11.116;2022-10-17T07:47:37;3.43;;;2.10;;
49103;SDS011;34915;52.926;11.116;2022-10-17T07:50:06;2.77;;;2.33;;
49103;SDS011;34915;52.926;11.116;2022-10-17T07:52:32;2.50;;;2.13;;
49103;SDS011;34915;52.926;11.116;2022-10-17T07:55:01;2.33;;;2.13;;
49103;SDS011;34915;52.926;11.116;2022-10-17T07:57:29;2.07;;;1.87;;
49103;SDS011;34915;52.926;11.116;2022-10-17T07:59:55;3.23;;;2.37;;
49103;SDS011;34915;52.926;11.116;2022-10-17T08:02:24;2.53;;;2.20;;
49103;SDS011;34915;52.926;11.116;2022-10-17T08:04:51;3.77;;;2.10;;
49103;SDS011;34915;52.926;11.116;2022-10-17T08:07:17;2.67;;;1.93;;
49103;SDS011;34915;52.926;11.116;2022-10-17T08:09:44;2.73;;;2.53;;
49103;SDS011;34915;52.926;11.116;2022-10-17T08:12:13;2.43;;;2.03;;
49103;SDS011;34915;52.926;11.116;2022-10-17T08:14:40;2.67;;;2.03;;
49103;SDS011;34915;52.926;11.116;2022-10-17T08:17:09;1.70;;;1.60;;
49103;SDS011;34915;52.926;11.116;2022-10-17T08:19:41;2.40;;;2.20;;
49103;SDS011;34915;52.926;11.116;2022-10-17T08:22:06;1.93;;;1.73;;
49103;SDS011;34915;52.926;11.116;2022-10-17T08:24:35;2.60;;;2.20;;
49103;SDS011;34915;52.926;11.116;2022-10-17T08:27:04;3.20;;;2.33;;
49103;SDS011;34915;52.926;11.116;2022-10-17T08:29:36;2.23;;;2.03;;
49103;SDS011;34915;52.926;11.116;2022-10-17T08:32:02;1.80;;;1.70;;
49103;SDS011;34915;52.926;11.116;2022-10-17T08:34:28;2.73;;;2.20;;
49103;SDS011;34915;52.926;11.116;2022-10-17T08:36:53;2.60;;;2.40;;
49103;SDS011;34915;52.926;11.116;2022-10-17T08:39:22;2.03;;;1.83;;
49103;SDS011;34915;52.926;11.116;2022-10-17T08:42:02;1.83;;;1.73;;
49103;SDS011;34915;52.926;11.116;2022-10-17T08:47:36;2.47;;;2.17;;
49103;SDS011;34915;52.926;11.116;2022-10-17T08:50:06;2.97;;;1.97;;
49103;SDS011;34915;52.926;11.116;2022-10-17T08:52:45;1.77;;;1.67;;
49103;SDS011;34915;52.926;11.116;2022-10-17T08:55:52;2.23;;;1.70;;
49103;SDS011;34915;52.926;11.116;2022-10-17T08:58:20;3.13;;;2.13;;
49103;SDS011;34915;52.926;11.116;2022-10-17T09:06:56;2.10;;;1.77;;
49103;SDS011;34915;52.926;11.116;2022-10-17T09:12:13;3.17;;;1.70;;
49103;SDS011;34915;52.926;11.116;2022-10-17T09:15:01;2.90;;;1.93;;
49103;SDS011;34915;52.926;11.116;2022-10-17T09:17:58;1.77;;;1.60;;
49103;SDS011;34915;52.926;11.116;2022-10-17T09:20:47;3.17;;;1.67;;
49103;SDS011;34915;52.926;11.116;2022-10-17T09:26:07;1.60;;;1.50;;
49103;SDS011;34915;52.926;11.116;2022-10-17T09:28:36;2.07;;;1.57;;
49103;SDS011;34915;52.926;11.116;2022-10-17T09:33:50;2.37;;;1.60;;
49103;SDS011;34915;52.926;11.116;2022-10-17T09:36:28;1.33;;;1.23;;
49103;SDS011;34915;52.926;11.116;2022-10-17T09:39:03;1.20;;;1.10;;
49103;SDS011;34915;52.926;11.116;2022-10-17T09:49:34;1.33;;;1.03;;
49103;SDS011;34915;52.926;11.116;2022-10-17T09:52:03;1.70;;;1.53;;
49103;SDS011;34915;52.926;11.116;2022-10-17T09:54:46;1.20;;;1.17;;
49103;SDS011;34915;52.926;11.116;2022-10-17T09:57:17;1.20;;;1.10;;
49103;SDS011;34915;52.926;11.116;2022-10-17T10:00:02;1.67;;;1.57;;
49103;SDS011;34915;52.926;11.116;2022-10-17T10:02:30;1.30;;;1.20;;
49103;SDS011;34915;52.926;11.116;2022-10-17T10:05:02;3.60;;;1.27;;
49103;SDS011;34915;52.926;11.116;2022-10-17T10:07:31;2.13;;;1.40;;
49103;SDS011;34915;52.926;11.116;2022-10-17T10:10:05;1.33;;;1.10;;
49103;SDS011;34915;52.926;11.116;2022-10-17T10:15:43;2.20;;;1.10;;
49103;SDS011;34915;52.926;11.116;2022-10-17T10:23:28;1.13;;;1.07;;
49103;SDS011;34915;52.926;11.116;2022-10-17T10:25:57;1.87;;;1.30;;
49103;SDS011;34915;52.926;11.116;2022-10-17T10:28:28;1.97;;;1.53;;
49103;SDS011;34915;52.926;11.116;2022-10-17T10:31:04;1.60;;;1.50;;
49103;SDS011;34915;52.926;11.116;2022-10-17T10:33:32;1.63;;;1.40;;
49103;SDS011;34915;52.926;11.116;2022-10-17T10:36:04;1.87;;;1.60;;
49103;SDS011;34915;52.926;11.116;2022-10-17T10:38:32;3.27;;;1.60;;
49103;SDS011;34915;52.926;11.116;2022-10-17T10:41:04;1.60;;;1.50;;
49103;SDS011;34915;52.926;11.116;2022-10-17T10:43:39;2.03;;;1.50;;
49103;SDS011;34915;52.926;11.116;2022-10-17T10:48:57;1.30;;;1.20;;
49103;SDS011;34915;52.926;11.116;2022-10-17T10:51:41;1.77;;;1.60;;
49103;SDS011;34915;52.926;11.116;2022-10-17T10:54:16;2.60;;;1.40;;
49103;SDS011;34915;52.926;11.116;2022-10-17T10:56:54;1.30;;;1.20;;
49103;SDS011;34915;52.926;11.116;2022-10-17T11:02:20;3.33;;;1.40;;
49103;SDS011;34915;52.926;11.116;2022-10-17T11:04:56;1.30;;;1.20;;
49103;SDS011;34915;52.926;11.116;2022-10-17T11:07:34;1.60;;;1.50;;
49103;SDS011;34915;52.926;11.116;2022-10-17T11:10:11;1.40;;;1.30;;
49103;SDS011;34915;52.926;11.116;2022-10-17T11:15:39;1.50;;;1.23;;
49103;SDS011;34915;52.926;11.116;2022-10-17T11:18:33;2.53;;;1.63;;
49103;SDS011;34915;52.926;11.116;2022-10-17T11:21:12;1.57;;;1.33;;
49103;SDS011;34915;52.926;11.116;2022-10-17T11:23:52;1.67;;;1.30;;
49103;SDS011;34915;52.926;11.116;2022-10-17T11:26:25;3.60;;;1.67;;
49103;SDS011;34915;52.926;11.116;2022-10-17T11:28:55;1.13;;;1.03;;
49103;SDS011;34915;52.926;11.116;2022-10-17T11:31:29;1.60;;;1.50;;
49103;SDS011;34915;52.926;11.116;2022-10-17T11:37:08;1.40;;;1.20;;
49103;SDS011;34915;52.926;11.116;2022-10-17T11:39:44;1.50;;;1.40;;
49103;SDS011;34915;52.926;11.116;2022-10-17T11:42:38;1.50;;;1.23;;
49103;SDS011;34915;52.926;11.116;2022-10-17T11:45:14;1.40;;;1.30;;
49103;SDS011;34915;52.926;11.116;2022-10-17T11:53:08;1.30;;;1.30;;
49103;SDS011;34915;52.926;11.116;2022-10-17T11:55:38;1.67;;;1.57;;
49103;SDS011;34915;52.926;11.116;2022-10-17T12:08:48;1.80;;;1.33;;
49103;SDS011;34915;52.926;11.116;2022-10-17T12:28:30;1.40;;;1.30;;
49103;SDS011;34915;52.926;11.116;2022-10-17T12:30:58;1.60;;;1.40;;
49103;SDS011;34915;52.926;11.116;2022-10-17T12:37:03;1.43;;;1.33;;
49103;SDS011;34915;52.926;11.116;2022-10-17T12:42:20;1.40;;;1.30;;
49103;SDS011;34915;52.926;11.116;2022-10-17T12:52:04;2.33;;;1.10;;
49103;SDS011;34915;52.926;11.116;2022-10-17T12:54:39;2.47;;;1.47;;
49103;SDS011;34915;52.926;11.116;2022-10-17T12:57:19;1.90;;;1.70;;
49103;SDS011;34915;52.926;11.116;2022-10-17T13:02:53;1.57;;;1.47;;
49103;SDS011;34915;52.926;11.116;2022-10-17T13:05:29;1.60;;;1.50;;
49103;SDS011;34915;52.926;11.116;2022-10-17T13:07:59;1.40;;;1.30;;
49103;SDS011;34915;52.926;11.116;2022-10-17T13:10:30;1.10;;;1.10;;
49103;SDS011;34915;52.926;11.116;2022-10-17T13:13:11;4.00;;;1.53;;
49103;SDS011;34915;52.926;11.116;2022-10-17T13:15:46;1.50;;;1.40;;
49103;SDS011;34915;52.926;11.116;2022-10-17T13:18:23;1.50;;;1.40;;
49103;SDS011;34915;52.926;11.116;2022-10-17T13:20:59;1.80;;;1.47;;
49103;SDS011;34915;52.926;11.116;2022-10-17T13:23:36;1.17;;;1.13;;
49103;SDS011;34915;52.926;11.116;2022-10-17T13:26:12;1.73;;;1.37;;
49103;SDS011;34915;52.926;11.116;2022-10-17T13:28:59;1.53;;;1.10;;
49103;SDS011;34915;52.926;11.116;2022-10-17T13:31:35;2.87;;;1.10;;
49103;SDS011;34915;52.926;11.116;2022-10-17T13:34:14;1.20;;;1.10;;
49103;SDS011;34915;52.926;11.116;2022-10-17T13:36:42;1.83;;;1.60;;
49103;SDS011;34915;52.926;11.116;2022-10-17T13:39:15;1.00;;;1.00;;
49103;SDS011;34915;52.926;11.116;2022-10-17T13:41:44;1.13;;;1.13;;
49103;SDS011;34915;52.926;11.116;2022-10-17T13:44:20;1.67;;;1.57;;
49103;SDS011;34915;52.926;11.116;2022-10-17T13:46:48;1.10;;;1.10;;
49103;SDS011;34915;52.926;11.116;2022-10-17T13:49:34;1.03;;;1.03;;
49103;SDS011;34915;52.926;11.116;2022-10-17T13:52:13;1.00;;;1.00;;
49103;SDS011;34915;52.926;11.116;2022-10-17T13:54:48;1.30;;;1.20;;
49103;SDS011;34915;52.926;11.116;2022-10-17T13:57:23;1.70;;;1.20;;
49103;SDS011;34915;52.926;11.116;2022-10-17T13:59:53;1.30;;;1.20;;
49103;SDS011;34915;52.926;11.116;2022-10-17T14:02:25;1.20;;;1.10;;
49103;SDS011;34915;52.926;11.116;2022-10-17T14:05:03;1.87;;;1.63;;
49103;SDS011;34915;52.926;11.116;2022-10-17T14:10:20;2.20;;;1.73;;
49103;SDS011;34915;52.926;11.116;2022-10-17T14:13:00;1.20;;;1.00;;
49103;SDS011;34915;52.926;11.116;2022-10-17T14:15:33;1.30;;;1.20;;
49103;SDS011;34915;52.926;11.116;2022-10-17T14:18:04;1.10;;;1.00;;
49103;SDS011;34915;52.926;11.116;2022-10-17T14:20:32;1.33;;;1.23;;
49103;SDS011;34915;52.926;11.116;2022-10-17T14:22:59;1.10;;;1.10;;
49103;SDS011;34915;52.926;11.116;2022-10-17T14:25:28;1.27;;;1.17;;
49103;SDS011;34915;52.926;11.116;2022-10-17T14:30:42;1.93;;;1.20;;
49103;SDS011;34915;52.926;11.116;2022-10-17T14:33:17;1.67;;;1.27;;
49103;SDS011;34915;52.926;11.116;2022-10-17T14:35:57;0.97;;;0.97;;
49103;SDS011;34915;52.926;11.116;2022-10-17T14:38:25;1.20;;;1.10;;
49103;SDS011;34915;52.926;11.116;2022-10-17T14:41:07;1.23;;;1.17;;
49103;SDS011;34915;52.926;11.116;2022-10-17T14:43:39;1.33;;;1.23;;
49103;SDS011;34915;52.926;11.116;2022-10-17T14:46:04;1.67;;;1.20;;
49103;SDS011;34915;52.926;11.116;2022-10-17T14:48:33;2.87;;;1.40;;
49103;SDS011;34915;52.926;11.116;2022-10-17T14:53:36;1.30;;;1.20;;
49103;SDS011;34915;52.926;11.116;2022-10-17T14:56:20;1.50;;;1.40;;
49103;SDS011;34915;52.926;11.116;2022-10-17T14:58:48;1.40;;;1.30;;
49103;SDS011;34915;52.926;11.116;2022-10-17T15:01:17;1.00;;;0.90;;
49103;SDS011;34915;52.926;11.116;2022-10-17T15:03:43;1.73;;;1.50;;
49103;SDS011;34915;52.926;11.116;2022-10-17T15:06:16;2.93;;;1.60;;
49103;SDS011;34915;52.926;11.116;2022-10-17T15:08:49;1.33;;;1.23;;
49103;SDS011;34915;52.926;11.116;2022-10-17T15:11:14;2.40;;;1.67;;
49103;SDS011;34915;52.926;11.116;2022-10-17T15:13:43;3.07;;;1.57;;
49103;SDS011;34915;52.926;11.116;2022-10-17T15:16:17;1.47;;;1.37;;
49103;SDS011;34915;52.926;11.116;2022-10-17T15:18:48;4.27;;;2.97;;
49103;SDS011;34915;52.926;11.116;2022-10-17T15:21:18;5.70;;;2.67;;
49103;SDS011;34915;52.926;11.116;2022-10-17T15:23:48;1.40;;;1.30;;
49103;SDS011;34915;52.926;11.116;2022-10-17T15:26:18;1.63;;;1.50;;
49103;SDS011;34915;52.926;11.116;2022-10-17T15:28:50;1.77;;;1.67;;
49103;SDS011;34915;52.926;11.116;2022-10-17T15:31:18;2.23;;;1.63;;
49103;SDS011;34915;52.926;11.116;2022-10-17T15:33:45;2.30;;;1.67;;
49103;SDS011;34915;52.926;11.116;2022-10-17T15:36:27;1.63;;;1.53;;
49103;SDS011;34915;52.926;11.116;2022-10-17T15:38:56;1.97;;;1.63;;
49103;SDS011;34915;52.926;11.116;2022-10-17T15:41:25;2.07;;;1.50;;
49103;SDS011;34915;52.926;11.116;2022-10-17T15:43:53;1.83;;;1.60;;
49103;SDS011;34915;52.926;11.116;2022-10-17T15:46:23;3.83;;;1.27;;
49103;SDS011;34915;52.926;11.116;2022-10-17T15:48:51;1.90;;;1.57;;
49103;SDS011;34915;52.926;11.116;2022-10-17T15:51:18;1.20;;;1.10;;
49103;SDS011;34915;52.926;11.116;2022-10-17T15:53:44;1.00;;;1.00;;
49103;SDS011;34915;52.926;11.116;2022-10-17T15:59:01;2.30;;;1.27;;
49103;SDS011;34915;52.926;11.116;2022-10-17T16:01:34;1.50;;;1.40;;
49103;SDS011;34915;52.926;11.116;2022-10-17T16:04:00;1.30;;;1.20;;
49103;SDS011;34915;52.926;11.116;2022-10-17T16:06:27;1.80;;;1.57;;
49103;SDS011;34915;52.926;11.116;2022-10-17T16:08:53;2.03;;;1.10;;
49103;SDS011;34915;52.926;11.116;2022-10-17T16:11:27;1.67;;;1.30;;
49103;SDS011;34915;52.926;11.116;2022-10-17T16:13:58;1.77;;;1.60;;
49103;SDS011;34915;52.926;11.116;2022-10-17T16:16:29;2.03;;;1.93;;
49103;SDS011;34915;52.926;11.116;2022-10-17T16:18:55;1.67;;;1.57;;
49103;SDS011;34915;52.926;11.116;2022-10-17T16:21:25;2.03;;;1.70;;
49103;SDS011;34915;52.926;11.116;2022-10-17T16:23:57;1.50;;;1.40;;
49103;SDS011;34915;52.926;11.116;2022-10-17T16:26:25;3.90;;;2.83;;
49103;SDS011;34915;52.926;11.116;2022-10-17T16:28:54;22.93;;;13.67;;
49103;SDS011;34915;52.926;11.116;2022-10-17T16:31:23;13.90;;;8.67;;
49103;SDS011;34915;52.926;11.116;2022-10-17T16:33:54;19.17;;;12.10;;
49103;SDS011;34915;52.926;11.116;2022-10-17T16:36:20;37.40;;;23.40;;
49103;SDS011;34915;52.926;11.116;2022-10-17T16:38:46;57.60;;;34.27;;
49103;SDS011;34915;52.926;11.116;2022-10-17T16:43:48;54.30;;;33.10;;
49103;SDS011;34915;52.926;11.116;2022-10-17T16:46:15;8.57;;;6.53;;
49103;SDS011;34915;52.926;11.116;2022-10-17T16:48:44;10.17;;;6.50;;
49103;SDS011;34915;52.926;11.116;2022-10-17T16:51:14;16.13;;;8.23;;
49103;SDS011;34915;52.926;11.116;2022-10-17T16:53:40;15.47;;;9.03;;
49103;SDS011;34915;52.926;11.116;2022-10-17T16:56:11;12.83;;;8.57;;
49103;SDS011;34915;52.926;11.116;2022-10-17T16:58:42;7.60;;;4.53;;
49103;SDS011;34915;52.926;11.116;2022-10-17T17:01:12;2.57;;;2.30;;
49103;SDS011;34915;52.926;11.116;2022-10-17T17:03:43;4.37;;;1.53;;
49103;SDS011;34915;52.926;11.116;2022-10-17T17:06:14;2.57;;;1.70;;
49103;SDS011;34915;52.926;11.116;2022-10-17T17:08:47;2.80;;;2.40;;
49103;SDS011;34915;52.926;11.116;2022-10-17T17:11:16;3.10;;;2.80;;
49103;SDS011;34915;52.926;11.116;2022-10-17T17:13:43;2.67;;;2.40;;
49103;SDS011;34915;52.926;11.116;2022-10-17T17:16:10;2.60;;;2.40;;
49103;SDS011;34915;52.926;11.116;2022-10-17T17:18:38;3.33;;;2.80;;